<?xml version="1.0" encoding="utf-8"?>
<gpx xmlns:xsi="http://www.w3.org/2001/XMLSchema-instance" xmlns:xsd="http://www.w3.org/2001/XMLSchema" version="1.1" creator="Shapelink.com" xmlns="http://www.topografix.com/GPX/1/1" xmlns:gpxtpx="http://www.garmin.com/xmlschemas/TrackPointExtension/v1">
  <metadata>
    <name>Promenad 7.40 km, 2017-02-18</name>
    <desc></desc>
    <author><name>Morten Hedlund</name></author> 
    <time>2017-02-18T09:45:58Z</time>
  </metadata>
  <trk>
    <name>Promenad 7.40 km, 2017-02-18</name>
    <trkseg>
      <trkpt lat="59.027015006534" lon="12.224179220886">
        <ele>104.4</ele>
        <time>2017-02-18T09:45:58Z</time>
      </trkpt>
      <trkpt lat="59.026859354651" lon="12.224345433963">
        <ele>105</ele>
        <time>2017-02-18T09:46:11Z</time>
      </trkpt>
      <trkpt lat="59.026848206724" lon="12.224408046756">
        <ele>105</ele>
        <time>2017-02-18T09:46:13Z</time>
      </trkpt>
      <trkpt lat="59.026800681351" lon="12.224764864239">
        <ele>107.2</ele>
        <time>2017-02-18T09:46:24Z</time>
      </trkpt>
      <trkpt lat="59.026741002223" lon="12.225125956491">
        <ele>110</ele>
        <time>2017-02-18T09:46:35Z</time>
      </trkpt>
      <trkpt lat="59.026675371946" lon="12.225461400129">
        <ele>107.6</ele>
        <time>2017-02-18T09:46:47Z</time>
      </trkpt>
      <trkpt lat="59.026612926791" lon="12.225807321142">
        <ele>104</ele>
        <time>2017-02-18T09:46:59Z</time>
      </trkpt>
      <trkpt lat="59.026571436386" lon="12.226165898824">
        <ele>101.4</ele>
        <time>2017-02-18T09:47:12Z</time>
      </trkpt>
      <trkpt lat="59.02660295233" lon="12.226522716307">
        <ele>103.2</ele>
        <time>2017-02-18T09:47:24Z</time>
      </trkpt>
      <trkpt lat="59.026550816912" lon="12.226893531563">
        <ele>100.4</ele>
        <time>2017-02-18T09:47:36Z</time>
      </trkpt>
      <trkpt lat="59.026495244915" lon="12.22723576454">
        <ele>99.2</ele>
        <time>2017-02-18T09:47:49Z</time>
      </trkpt>
      <trkpt lat="59.026518965692" lon="12.227573052196">
        <ele>100.6</ele>
        <time>2017-02-18T09:48:05Z</time>
      </trkpt>
      <trkpt lat="59.026606137452" lon="12.227885864704">
        <ele>96.8</ele>
        <time>2017-02-18T09:48:18Z</time>
      </trkpt>
      <trkpt lat="59.026697919257" lon="12.228176548996">
        <ele>96.8</ele>
        <time>2017-02-18T09:48:31Z</time>
      </trkpt>
      <trkpt lat="59.026697751619" lon="12.22842767072">
        <ele>99.4</ele>
        <time>2017-02-18T09:48:43Z</time>
      </trkpt>
      <trkpt lat="59.026512595448" lon="12.228521715638">
        <ele>94.6</ele>
        <time>2017-02-18T09:48:53Z</time>
      </trkpt>
      <trkpt lat="59.026366331293" lon="12.228727407464">
        <ele>95.6</ele>
        <time>2017-02-18T09:49:05Z</time>
      </trkpt>
      <trkpt lat="59.026197519827" lon="12.22892471739">
        <ele>92.4</ele>
        <time>2017-02-18T09:49:16Z</time>
      </trkpt>
      <trkpt lat="59.026021164651" lon="12.229036867212">
        <ele>92</ele>
        <time>2017-02-18T09:49:27Z</time>
      </trkpt>
      <trkpt lat="59.025830560245" lon="12.229020941602">
        <ele>89.4</ele>
        <time>2017-02-18T09:49:38Z</time>
      </trkpt>
      <trkpt lat="59.02565663582" lon="12.22886269133">
        <ele>90.2</ele>
        <time>2017-02-18T09:49:49Z</time>
      </trkpt>
      <trkpt lat="59.025478185169" lon="12.228750792965">
        <ele>89.8</ele>
        <time>2017-02-18T09:50:01Z</time>
      </trkpt>
      <trkpt lat="59.025292358446" lon="12.228682983394">
        <ele>87.2</ele>
        <time>2017-02-18T09:50:15Z</time>
      </trkpt>
      <trkpt lat="59.025111979958" lon="12.228563122224">
        <ele>84.8</ele>
        <time>2017-02-18T09:50:28Z</time>
      </trkpt>
      <trkpt lat="59.025014330823" lon="12.228285681334">
        <ele>85.6</ele>
        <time>2017-02-18T09:50:42Z</time>
      </trkpt>
      <trkpt lat="59.02498608382" lon="12.228231282803">
        <ele>86.4</ele>
        <time>2017-02-18T09:50:45Z</time>
      </trkpt>
      <trkpt lat="59.02483018048" lon="12.228425826702">
        <ele>90</ele>
        <time>2017-02-18T09:50:58Z</time>
      </trkpt>
      <trkpt lat="59.02468182085" lon="12.228625902655">
        <ele>91.2</ele>
        <time>2017-02-18T09:51:10Z</time>
      </trkpt>
      <trkpt lat="59.024528599718" lon="12.228811394102">
        <ele>89.8</ele>
        <time>2017-02-18T09:51:23Z</time>
      </trkpt>
      <trkpt lat="59.024354759112" lon="12.228976852808">
        <ele>89</ele>
        <time>2017-02-18T09:51:36Z</time>
      </trkpt>
      <trkpt lat="59.024181505239" lon="12.229117333452">
        <ele>88</ele>
        <time>2017-02-18T09:51:48Z</time>
      </trkpt>
      <trkpt lat="59.024016381809" lon="12.229258987562">
        <ele>86.8</ele>
        <time>2017-02-18T09:52:00Z</time>
      </trkpt>
      <trkpt lat="59.023845977782" lon="12.229377088533">
        <ele>87.8</ele>
        <time>2017-02-18T09:52:11Z</time>
      </trkpt>
      <trkpt lat="59.023666018389" lon="12.229477755152">
        <ele>89.4</ele>
        <time>2017-02-18T09:52:23Z</time>
      </trkpt>
      <trkpt lat="59.023492848335" lon="12.229589318241">
        <ele>89.4</ele>
        <time>2017-02-18T09:52:35Z</time>
      </trkpt>
      <trkpt lat="59.023304339404" lon="12.229696103647">
        <ele>88</ele>
        <time>2017-02-18T09:52:47Z</time>
      </trkpt>
      <trkpt lat="59.023120440518" lon="12.229792160221">
        <ele>88.6</ele>
        <time>2017-02-18T09:52:59Z</time>
      </trkpt>
      <trkpt lat="59.022934446157" lon="12.229842116345">
        <ele>89.6</ele>
        <time>2017-02-18T09:53:11Z</time>
      </trkpt>
      <trkpt lat="59.022752894203" lon="12.22987773942">
        <ele>90.8</ele>
        <time>2017-02-18T09:53:22Z</time>
      </trkpt>
      <trkpt lat="59.022564385272" lon="12.22984840277">
        <ele>90</ele>
        <time>2017-02-18T09:53:34Z</time>
      </trkpt>
      <trkpt lat="59.022372858857" lon="12.229838009214">
        <ele>90</ele>
        <time>2017-02-18T09:53:46Z</time>
      </trkpt>
      <trkpt lat="59.022198180061" lon="12.229750250721">
        <ele>89.8</ele>
        <time>2017-02-18T09:53:57Z</time>
      </trkpt>
      <trkpt lat="59.022020232324" lon="12.22965394269">
        <ele>89.8</ele>
        <time>2017-02-18T09:54:10Z</time>
      </trkpt>
      <trkpt lat="59.021841530216" lon="12.229566435654">
        <ele>91.2</ele>
        <time>2017-02-18T09:54:22Z</time>
      </trkpt>
      <trkpt lat="59.021647824507" lon="12.22950474487">
        <ele>93.2</ele>
        <time>2017-02-18T09:54:34Z</time>
      </trkpt>
      <trkpt lat="59.021466272553" lon="12.229459734067">
        <ele>93.8</ele>
        <time>2017-02-18T09:54:45Z</time>
      </trkpt>
      <trkpt lat="59.021287486626" lon="12.229399552025">
        <ele>93.6</ele>
        <time>2017-02-18T09:54:57Z</time>
      </trkpt>
      <trkpt lat="59.021108868337" lon="12.229328054418">
        <ele>92.8</ele>
        <time>2017-02-18T09:55:08Z</time>
      </trkpt>
      <trkpt lat="59.020924466537" lon="12.22931279936">
        <ele>90</ele>
        <time>2017-02-18T09:55:20Z</time>
      </trkpt>
      <trkpt lat="59.020729000629" lon="12.22932704859">
        <ele>82.6</ele>
        <time>2017-02-18T09:55:33Z</time>
      </trkpt>
      <trkpt lat="59.020551052892" lon="12.22940080931">
        <ele>81.4</ele>
        <time>2017-02-18T09:55:44Z</time>
      </trkpt>
      <trkpt lat="59.020371344956" lon="12.229476581686">
        <ele>82.8</ele>
        <time>2017-02-18T09:55:55Z</time>
      </trkpt>
      <trkpt lat="59.020179567084" lon="12.229523604145">
        <ele>83.8</ele>
        <time>2017-02-18T09:56:08Z</time>
      </trkpt>
      <trkpt lat="59.01999550056" lon="12.229541960506">
        <ele>81.4</ele>
        <time>2017-02-18T09:56:19Z</time>
      </trkpt>
      <trkpt lat="59.019807494543" lon="12.22950977401">
        <ele>79.6</ele>
        <time>2017-02-18T09:56:31Z</time>
      </trkpt>
      <trkpt lat="59.019616219585" lon="12.229497284979">
        <ele>83.8</ele>
        <time>2017-02-18T09:56:42Z</time>
      </trkpt>
      <trkpt lat="59.019424944627" lon="12.229425200639">
        <ele>86.6</ele>
        <time>2017-02-18T09:56:54Z</time>
      </trkpt>
      <trkpt lat="59.019241045741" lon="12.229380273655">
        <ele>87.6</ele>
        <time>2017-02-18T09:57:04Z</time>
      </trkpt>
      <trkpt lat="59.019057985045" lon="12.229319001966">
        <ele>89.2</ele>
        <time>2017-02-18T09:57:14Z</time>
      </trkpt>
      <trkpt lat="59.018859836929" lon="12.229293772447">
        <ele>93</ele>
        <time>2017-02-18T09:57:24Z</time>
      </trkpt>
      <trkpt lat="59.01867451312" lon="12.229201990642">
        <ele>90</ele>
        <time>2017-02-18T09:57:36Z</time>
      </trkpt>
      <trkpt lat="59.018492877347" lon="12.229095540512">
        <ele>90</ele>
        <time>2017-02-18T09:57:46Z</time>
      </trkpt>
      <trkpt lat="59.018309313737" lon="12.228986156717">
        <ele>90.2</ele>
        <time>2017-02-18T09:57:57Z</time>
      </trkpt>
      <trkpt lat="59.018128097059" lon="12.22889370436">
        <ele>88.8</ele>
        <time>2017-02-18T09:58:09Z</time>
      </trkpt>
      <trkpt lat="59.017941515965" lon="12.228873755438">
        <ele>92.8</ele>
        <time>2017-02-18T09:58:19Z</time>
      </trkpt>
      <trkpt lat="59.01775585688" lon="12.228874761266">
        <ele>93.2</ele>
        <time>2017-02-18T09:58:30Z</time>
      </trkpt>
      <trkpt lat="59.017568269958" lon="12.228915078205">
        <ele>91.6</ele>
        <time>2017-02-18T09:58:42Z</time>
      </trkpt>
      <trkpt lat="59.017389232574" lon="12.228996885549">
        <ele>91</ele>
        <time>2017-02-18T09:58:53Z</time>
      </trkpt>
      <trkpt lat="59.017213296493" lon="12.229098390358">
        <ele>88</ele>
        <time>2017-02-18T09:59:06Z</time>
      </trkpt>
      <trkpt lat="59.017048592158" lon="12.229244151599">
        <ele>87.4</ele>
        <time>2017-02-18T09:59:18Z</time>
      </trkpt>
      <trkpt lat="59.016888749325" lon="12.229461829542">
        <ele>87.6</ele>
        <time>2017-02-18T09:59:31Z</time>
      </trkpt>
      <trkpt lat="59.016748855414" lon="12.229693672896">
        <ele>88.2</ele>
        <time>2017-02-18T09:59:42Z</time>
      </trkpt>
      <trkpt lat="59.016631341176" lon="12.229961390782">
        <ele>87.8</ele>
        <time>2017-02-18T09:59:53Z</time>
      </trkpt>
      <trkpt lat="59.016522627933" lon="12.230267162494">
        <ele>88.6</ele>
        <time>2017-02-18T10:00:05Z</time>
      </trkpt>
      <trkpt lat="59.016430510852" lon="12.230583411581">
        <ele>88.4</ele>
        <time>2017-02-18T10:00:17Z</time>
      </trkpt>
      <trkpt lat="59.016386673515" lon="12.230935786657">
        <ele>89.8</ele>
        <time>2017-02-18T10:00:30Z</time>
      </trkpt>
      <trkpt lat="59.01631752284" lon="12.231268045173">
        <ele>91</ele>
        <time>2017-02-18T10:00:42Z</time>
      </trkpt>
      <trkpt lat="59.016247031061" lon="12.231597537662">
        <ele>91.6</ele>
        <time>2017-02-18T10:00:54Z</time>
      </trkpt>
      <trkpt lat="59.016179975861" lon="12.231937256069">
        <ele>92</ele>
        <time>2017-02-18T10:01:06Z</time>
      </trkpt>
      <trkpt lat="59.01611719543" lon="12.232310837352">
        <ele>94.8</ele>
        <time>2017-02-18T10:01:18Z</time>
      </trkpt>
      <trkpt lat="59.016035555724" lon="12.232648208827">
        <ele>97</ele>
        <time>2017-02-18T10:01:31Z</time>
      </trkpt>
      <trkpt lat="59.015929273232" lon="12.232941910603">
        <ele>95.6</ele>
        <time>2017-02-18T10:01:43Z</time>
      </trkpt>
      <trkpt lat="59.015796336298" lon="12.233173670138">
        <ele>94</ele>
        <time>2017-02-18T10:01:55Z</time>
      </trkpt>
      <trkpt lat="59.015659376052" lon="12.233435269237">
        <ele>92.2</ele>
        <time>2017-02-18T10:02:06Z</time>
      </trkpt>
      <trkpt lat="59.01552878605" lon="12.233673147559">
        <ele>92.4</ele>
        <time>2017-02-18T10:02:17Z</time>
      </trkpt>
      <trkpt lat="59.015367937389" lon="12.233866937087">
        <ele>90.8</ele>
        <time>2017-02-18T10:02:30Z</time>
      </trkpt>
      <trkpt lat="59.015192336584" lon="12.234028288662">
        <ele>88.8</ele>
        <time>2017-02-18T10:02:43Z</time>
      </trkpt>
      <trkpt lat="59.015033331941" lon="12.234200955802">
        <ele>87.8</ele>
        <time>2017-02-18T10:02:55Z</time>
      </trkpt>
      <trkpt lat="59.014870639262" lon="12.234359960445">
        <ele>88.4</ele>
        <time>2017-02-18T10:03:06Z</time>
      </trkpt>
      <trkpt lat="59.01470652166" lon="12.234518881269">
        <ele>89.4</ele>
        <time>2017-02-18T10:03:17Z</time>
      </trkpt>
      <trkpt lat="59.014539470393" lon="12.234700768499">
        <ele>90</ele>
        <time>2017-02-18T10:03:28Z</time>
      </trkpt>
      <trkpt lat="59.014366300339" lon="12.234844937179">
        <ele>88.2</ele>
        <time>2017-02-18T10:03:40Z</time>
      </trkpt>
      <trkpt lat="59.01419103481" lon="12.23498147833">
        <ele>88</ele>
        <time>2017-02-18T10:03:51Z</time>
      </trkpt>
      <trkpt lat="59.014016272195" lon="12.235062196027">
        <ele>89.4</ele>
        <time>2017-02-18T10:04:02Z</time>
      </trkpt>
      <trkpt lat="59.013839581743" lon="12.23517174746">
        <ele>89.4</ele>
        <time>2017-02-18T10:04:13Z</time>
      </trkpt>
      <trkpt lat="59.013657275418" lon="12.23530501967">
        <ele>89.4</ele>
        <time>2017-02-18T10:04:25Z</time>
      </trkpt>
      <trkpt lat="59.013482177527" lon="12.235406943574">
        <ele>90</ele>
        <time>2017-02-18T10:04:36Z</time>
      </trkpt>
      <trkpt lat="59.013301547582" lon="12.235526888563">
        <ele>90.2</ele>
        <time>2017-02-18T10:04:49Z</time>
      </trkpt>
      <trkpt lat="59.013134496315" lon="12.235711038906">
        <ele>91.6</ele>
        <time>2017-02-18T10:05:02Z</time>
      </trkpt>
      <trkpt lat="59.0129764975" lon="12.235881275295">
        <ele>92.6</ele>
        <time>2017-02-18T10:05:14Z</time>
      </trkpt>
      <trkpt lat="59.012804417093" lon="12.23603256859">
        <ele>91.6</ele>
        <time>2017-02-18T10:05:26Z</time>
      </trkpt>
      <trkpt lat="59.012623535691" lon="12.236165086429">
        <ele>92</ele>
        <time>2017-02-18T10:05:39Z</time>
      </trkpt>
      <trkpt lat="59.012446342325" lon="12.236267513247">
        <ele>89.8</ele>
        <time>2017-02-18T10:05:50Z</time>
      </trkpt>
      <trkpt lat="59.012268562226" lon="12.236366754943">
        <ele>88.6</ele>
        <time>2017-02-18T10:06:01Z</time>
      </trkpt>
      <trkpt lat="59.012085585349" lon="12.236451328314">
        <ele>89.2</ele>
        <time>2017-02-18T10:06:12Z</time>
      </trkpt>
      <trkpt lat="59.011899842445" lon="12.236537410427">
        <ele>89.2</ele>
        <time>2017-02-18T10:06:24Z</time>
      </trkpt>
      <trkpt lat="59.011712926075" lon="12.236616116468">
        <ele>89.4</ele>
        <time>2017-02-18T10:06:36Z</time>
      </trkpt>
      <trkpt lat="59.011527853723" lon="12.236696917984">
        <ele>88.8</ele>
        <time>2017-02-18T10:06:48Z</time>
      </trkpt>
      <trkpt lat="59.011341607905" lon="12.236763134994">
        <ele>88.6</ele>
        <time>2017-02-18T10:07:01Z</time>
      </trkpt>
      <trkpt lat="59.011165252729" lon="12.236855503532">
        <ele>87.6</ele>
        <time>2017-02-18T10:07:11Z</time>
      </trkpt>
      <trkpt lat="59.010988813734" lon="12.236967318078">
        <ele>86</ele>
        <time>2017-02-18T10:07:22Z</time>
      </trkpt>
      <trkpt lat="59.010797874052" lon="12.23704761668">
        <ele>85.4</ele>
        <time>2017-02-18T10:07:34Z</time>
      </trkpt>
      <trkpt lat="59.010605593266" lon="12.237105954704">
        <ele>84.6</ele>
        <time>2017-02-18T10:07:46Z</time>
      </trkpt>
      <trkpt lat="59.010416581421" lon="12.237149959679">
        <ele>82.8</ele>
        <time>2017-02-18T10:07:58Z</time>
      </trkpt>
      <trkpt lat="59.01022471973" lon="12.237222714571">
        <ele>82.2</ele>
        <time>2017-02-18T10:08:11Z</time>
      </trkpt>
      <trkpt lat="59.010036881351" lon="12.237279376215">
        <ele>82.6</ele>
        <time>2017-02-18T10:08:23Z</time>
      </trkpt>
      <trkpt lat="59.009844852022" lon="12.237370403649">
        <ele>84.4</ele>
        <time>2017-02-18T10:08:35Z</time>
      </trkpt>
      <trkpt lat="59.009651313951" lon="12.237461011988">
        <ele>84.4</ele>
        <time>2017-02-18T10:08:46Z</time>
      </trkpt>
      <trkpt lat="59.009458111156" lon="12.237517673632">
        <ele>84</ele>
        <time>2017-02-18T10:08:58Z</time>
      </trkpt>
      <trkpt lat="59.009271949157" lon="12.237500993651">
        <ele>85.6</ele>
        <time>2017-02-18T10:09:09Z</time>
      </trkpt>
      <trkpt lat="59.009090983936" lon="12.237468304241">
        <ele>88.4</ele>
        <time>2017-02-18T10:09:20Z</time>
      </trkpt>
      <trkpt lat="59.008903061738" lon="12.23740133286">
        <ele>88.4</ele>
        <time>2017-02-18T10:09:33Z</time>
      </trkpt>
      <trkpt lat="59.008718408481" lon="12.237349532718">
        <ele>89.8</ele>
        <time>2017-02-18T10:09:45Z</time>
      </trkpt>
      <trkpt lat="59.008531156835" lon="12.237320447525">
        <ele>89.8</ele>
        <time>2017-02-18T10:09:57Z</time>
      </trkpt>
      <trkpt lat="59.008336780574" lon="12.237273005971">
        <ele>90</ele>
        <time>2017-02-18T10:10:09Z</time>
      </trkpt>
      <trkpt lat="59.008154893344" lon="12.237258505284">
        <ele>88.2</ele>
        <time>2017-02-18T10:10:20Z</time>
      </trkpt>
      <trkpt lat="59.00796663587" lon="12.237238221086">
        <ele>86.2</ele>
        <time>2017-02-18T10:10:32Z</time>
      </trkpt>
      <trkpt lat="59.007779048948" lon="12.23722782753">
        <ele>85</ele>
        <time>2017-02-18T10:10:44Z</time>
      </trkpt>
      <trkpt lat="59.007601268849" lon="12.237284321536">
        <ele>87</ele>
        <time>2017-02-18T10:10:55Z</time>
      </trkpt>
      <trkpt lat="59.007425668044" lon="12.237389849657">
        <ele>89.4</ele>
        <time>2017-02-18T10:11:07Z</time>
      </trkpt>
      <trkpt lat="59.007242020615" lon="12.237488672258">
        <ele>90.4</ele>
        <time>2017-02-18T10:11:19Z</time>
      </trkpt>
      <trkpt lat="59.007067174181" lon="12.237600486804">
        <ele>88.2</ele>
        <time>2017-02-18T10:11:33Z</time>
      </trkpt>
      <trkpt lat="59.006898697991" lon="12.237736189765">
        <ele>87</ele>
        <time>2017-02-18T10:11:47Z</time>
      </trkpt>
      <trkpt lat="59.00674120209" lon="12.237943306514">
        <ele>86.6</ele>
        <time>2017-02-18T10:11:59Z</time>
      </trkpt>
      <trkpt lat="59.006604996215" lon="12.238185543424">
        <ele>86.2</ele>
        <time>2017-02-18T10:12:11Z</time>
      </trkpt>
      <trkpt lat="59.006460659897" lon="12.238438341528">
        <ele>85.4</ele>
        <time>2017-02-18T10:12:25Z</time>
      </trkpt>
      <trkpt lat="59.006343564754" lon="12.238703796301">
        <ele>86.6</ele>
        <time>2017-02-18T10:12:37Z</time>
      </trkpt>
      <trkpt lat="59.006225296145" lon="12.238969670169">
        <ele>85.4</ele>
        <time>2017-02-18T10:12:49Z</time>
      </trkpt>
      <trkpt lat="59.006100489654" lon="12.239226743042">
        <ele>86.2</ele>
        <time>2017-02-18T10:13:00Z</time>
      </trkpt>
      <trkpt lat="59.005946849427" lon="12.239407792082">
        <ele>83.2</ele>
        <time>2017-02-18T10:13:11Z</time>
      </trkpt>
      <trkpt lat="59.005804524765" lon="12.239626811129">
        <ele>83.4</ele>
        <time>2017-02-18T10:13:24Z</time>
      </trkpt>
      <trkpt lat="59.005647280321" lon="12.239845075805">
        <ele>82</ele>
        <time>2017-02-18T10:13:37Z</time>
      </trkpt>
      <trkpt lat="59.00548810804" lon="12.240007600846">
        <ele>82</ele>
        <time>2017-02-18T10:13:49Z</time>
      </trkpt>
      <trkpt lat="59.005311082312" lon="12.240159397055">
        <ele>81.8</ele>
        <time>2017-02-18T10:14:02Z</time>
      </trkpt>
      <trkpt lat="59.005133134575" lon="12.240271211601">
        <ele>82.4</ele>
        <time>2017-02-18T10:14:14Z</time>
      </trkpt>
      <trkpt lat="59.004950660612" lon="12.240336171326">
        <ele>82</ele>
        <time>2017-02-18T10:14:26Z</time>
      </trkpt>
      <trkpt lat="59.004766594088" lon="12.240345726692">
        <ele>81.2</ele>
        <time>2017-02-18T10:14:38Z</time>
      </trkpt>
      <trkpt lat="59.00457364275" lon="12.240308678694">
        <ele>81</ele>
        <time>2017-02-18T10:14:51Z</time>
      </trkpt>
      <trkpt lat="59.004384463267" lon="12.240306583219">
        <ele>82.6</ele>
        <time>2017-02-18T10:15:03Z</time>
      </trkpt>
      <trkpt lat="59.004183632943" lon="12.240315048938">
        <ele>84.4</ele>
        <time>2017-02-18T10:15:18Z</time>
      </trkpt>
      <trkpt lat="59.003998476772" lon="12.240303565735">
        <ele>85.6</ele>
        <time>2017-02-18T10:15:31Z</time>
      </trkpt>
      <trkpt lat="59.003803178502" lon="12.240362909587">
        <ele>84.6</ele>
        <time>2017-02-18T10:15:43Z</time>
      </trkpt>
      <trkpt lat="59.003631601009" lon="12.240502719679">
        <ele>87.4</ele>
        <time>2017-02-18T10:15:55Z</time>
      </trkpt>
      <trkpt lat="59.003455832566" lon="12.240652504232">
        <ele>87.2</ele>
        <time>2017-02-18T10:16:08Z</time>
      </trkpt>
      <trkpt lat="59.003293642801" lon="12.240810838323">
        <ele>85.6</ele>
        <time>2017-02-18T10:16:21Z</time>
      </trkpt>
      <trkpt lat="59.002993570781" lon="12.241264885846">
        <ele>85.4</ele>
        <time>2017-02-18T10:16:52Z</time>
      </trkpt>
      <trkpt lat="59.002887707384" lon="12.241553893758">
        <ele>87.4</ele>
        <time>2017-02-18T10:17:07Z</time>
      </trkpt>
      <trkpt lat="59.002915367654" lon="12.24189570764">
        <ele>84.4</ele>
        <time>2017-02-18T10:17:21Z</time>
      </trkpt>
      <trkpt lat="59.002946799779" lon="12.24224774744">
        <ele>83.6</ele>
        <time>2017-02-18T10:17:34Z</time>
      </trkpt>
      <trkpt lat="59.002998348464" lon="12.242608504416">
        <ele>86.8</ele>
        <time>2017-02-18T10:17:49Z</time>
      </trkpt>
      <trkpt lat="59.003010669857" lon="12.242976553645">
        <ele>85.8</ele>
        <time>2017-02-18T10:18:02Z</time>
      </trkpt>
      <trkpt lat="59.002993570781" lon="12.243326833246">
        <ele>84.6</ele>
        <time>2017-02-18T10:18:15Z</time>
      </trkpt>
      <trkpt lat="59.002963898855" lon="12.243695385389">
        <ele>88.4</ele>
        <time>2017-02-18T10:18:29Z</time>
      </trkpt>
      <trkpt lat="59.002851329938" lon="12.243990847364">
        <ele>89.8</ele>
        <time>2017-02-18T10:18:43Z</time>
      </trkpt>
      <trkpt lat="59.00278662167" lon="12.24431723855">
        <ele>87.6</ele>
        <time>2017-02-18T10:18:56Z</time>
      </trkpt>
      <trkpt lat="59.002712609493" lon="12.244655448215">
        <ele>86.2</ele>
        <time>2017-02-18T10:19:10Z</time>
      </trkpt>
      <trkpt lat="59.002614122168" lon="12.244964656506">
        <ele>83</ele>
        <time>2017-02-18T10:19:23Z</time>
      </trkpt>
      <trkpt lat="59.002547905158" lon="12.245298507583">
        <ele>83.6</ele>
        <time>2017-02-18T10:19:37Z</time>
      </trkpt>
      <trkpt lat="59.002528123874" lon="12.245563878537">
        <ele>84.6</ele>
        <time>2017-02-18T10:19:47Z</time>
      </trkpt>
      <trkpt lat="59.002657456591" lon="12.245732187089">
        <ele>89.2</ele>
        <time>2017-02-18T10:20:11Z</time>
      </trkpt>
      <trkpt lat="59.002829201722" lon="12.245819107392">
        <ele>84.6</ele>
        <time>2017-02-18T10:21:09Z</time>
      </trkpt>
      <trkpt lat="59.003006059812" lon="12.245901250012">
        <ele>90.6</ele>
        <time>2017-02-18T10:21:23Z</time>
      </trkpt>
      <trkpt lat="59.00319230563" lon="12.245980375148">
        <ele>93</ele>
        <time>2017-02-18T10:21:36Z</time>
      </trkpt>
      <trkpt lat="59.003369415177" lon="12.246072492229">
        <ele>94.8</ele>
        <time>2017-02-18T10:21:48Z</time>
      </trkpt>
      <trkpt lat="59.00340101494" lon="12.246079365387">
        <ele>94.4</ele>
        <time>2017-02-18T10:21:50Z</time>
      </trkpt>
      <trkpt lat="59.003577118659" lon="12.246171985382">
        <ele>94.6</ele>
        <time>2017-02-18T10:22:02Z</time>
      </trkpt>
      <trkpt lat="59.00375892207" lon="12.246243818265">
        <ele>94.2</ele>
        <time>2017-02-18T10:22:15Z</time>
      </trkpt>
      <trkpt lat="59.003942401861" lon="12.246331325301">
        <ele>95</ele>
        <time>2017-02-18T10:22:28Z</time>
      </trkpt>
      <trkpt lat="59.004125462557" lon="12.246379688864">
        <ele>97</ele>
        <time>2017-02-18T10:22:41Z</time>
      </trkpt>
      <trkpt lat="59.004305086674" lon="12.246448420444">
        <ele>94.4</ele>
        <time>2017-02-18T10:22:54Z</time>
      </trkpt>
      <trkpt lat="59.004497283641" lon="12.246469878108">
        <ele>94</ele>
        <time>2017-02-18T10:23:07Z</time>
      </trkpt>
      <trkpt lat="59.004685457296" lon="12.246478762922">
        <ele>96.4</ele>
        <time>2017-02-18T10:23:20Z</time>
      </trkpt>
      <trkpt lat="59.004871703114" lon="12.246461077113">
        <ele>97.2</ele>
        <time>2017-02-18T10:23:34Z</time>
      </trkpt>
      <trkpt lat="59.005057110742" lon="12.246450851195">
        <ele>94.8</ele>
        <time>2017-02-18T10:23:47Z</time>
      </trkpt>
      <trkpt lat="59.005246038768" lon="12.246402571451">
        <ele>95.2</ele>
        <time>2017-02-18T10:24:01Z</time>
      </trkpt>
      <trkpt lat="59.005427087808" lon="12.24632721817">
        <ele>96.4</ele>
        <time>2017-02-18T10:24:14Z</time>
      </trkpt>
      <trkpt lat="59.005614004178" lon="12.246278184055">
        <ele>97.4</ele>
        <time>2017-02-18T10:24:27Z</time>
      </trkpt>
      <trkpt lat="59.0057932092" lon="12.246242896256">
        <ele>96.8</ele>
        <time>2017-02-18T10:24:39Z</time>
      </trkpt>
      <trkpt lat="59.005971240756" lon="12.246172907391">
        <ele>95.6</ele>
        <time>2017-02-18T10:24:52Z</time>
      </trkpt>
      <trkpt lat="59.006157905669" lon="12.246130075882">
        <ele>95.6</ele>
        <time>2017-02-18T10:25:05Z</time>
      </trkpt>
      <trkpt lat="59.006346582238" lon="12.246077772826">
        <ele>96.4</ele>
        <time>2017-02-18T10:25:19Z</time>
      </trkpt>
      <trkpt lat="59.00653416916" lon="12.246010801445">
        <ele>97</ele>
        <time>2017-02-18T10:25:33Z</time>
      </trkpt>
      <trkpt lat="59.006714296191" lon="12.245964533357">
        <ele>100.4</ele>
        <time>2017-02-18T10:25:45Z</time>
      </trkpt>
      <trkpt lat="59.0068912381" lon="12.245886497868">
        <ele>104.4</ele>
        <time>2017-02-18T10:25:58Z</time>
      </trkpt>
      <trkpt lat="59.007078573565" lon="12.245889934447">
        <ele>103.6</ele>
        <time>2017-02-18T10:26:11Z</time>
      </trkpt>
      <trkpt lat="59.007262807727" lon="12.245925892798">
        <ele>102</ele>
        <time>2017-02-18T10:26:24Z</time>
      </trkpt>
      <trkpt lat="59.007443521491" lon="12.245997390405">
        <ele>102</ele>
        <time>2017-02-18T10:26:37Z</time>
      </trkpt>
      <trkpt lat="59.007629934947" lon="12.246026140322">
        <ele>107</ele>
        <time>2017-02-18T10:26:51Z</time>
      </trkpt>
      <trkpt lat="59.007805032838" lon="12.246113395901">
        <ele>109.4</ele>
        <time>2017-02-18T10:27:03Z</time>
      </trkpt>
      <trkpt lat="59.007965294766" lon="12.246295199312">
        <ele>107.8</ele>
        <time>2017-02-18T10:27:17Z</time>
      </trkpt>
      <trkpt lat="59.008139470648" lon="12.246413970835">
        <ele>103.6</ele>
        <time>2017-02-18T10:27:30Z</time>
      </trkpt>
      <trkpt lat="59.008312053969" lon="12.246540034611">
        <ele>105.2</ele>
        <time>2017-02-18T10:27:43Z</time>
      </trkpt>
      <trkpt lat="59.008492683914" lon="12.246667271853">
        <ele>104.8</ele>
        <time>2017-02-18T10:27:57Z</time>
      </trkpt>
      <trkpt lat="59.00867406823" lon="12.24676223878">
        <ele>105.6</ele>
        <time>2017-02-18T10:28:11Z</time>
      </trkpt>
      <trkpt lat="59.008863080075" lon="12.246820325347">
        <ele>106.2</ele>
        <time>2017-02-18T10:28:25Z</time>
      </trkpt>
      <trkpt lat="59.009048906798" lon="12.246845638685">
        <ele>109.4</ele>
        <time>2017-02-18T10:28:39Z</time>
      </trkpt>
      <trkpt lat="59.009239175928" lon="12.246861648114">
        <ele>109.6</ele>
        <time>2017-02-18T10:28:54Z</time>
      </trkpt>
      <trkpt lat="59.009419135321" lon="12.24686701253">
        <ele>109</ele>
        <time>2017-02-18T10:29:07Z</time>
      </trkpt>
      <trkpt lat="59.009451237998" lon="12.24686868891">
        <ele>109</ele>
        <time>2017-02-18T10:29:10Z</time>
      </trkpt>
      <trkpt lat="59.00960529732" lon="12.246847817979">
        <ele>109.4</ele>
        <time>2017-02-18T10:29:24Z</time>
      </trkpt>
      <trkpt lat="59.009795482631" lon="12.246809680334">
        <ele>110.2</ele>
        <time>2017-02-18T10:29:40Z</time>
      </trkpt>
      <trkpt lat="59.009979549155" lon="12.246751593767">
        <ele>109.6</ele>
        <time>2017-02-18T10:29:54Z</time>
      </trkpt>
      <trkpt lat="59.010154982322" lon="12.246661907437">
        <ele>110.8</ele>
        <time>2017-02-18T10:30:08Z</time>
      </trkpt>
      <trkpt lat="59.010339300303" lon="12.246602060671">
        <ele>111.4</ele>
        <time>2017-02-18T10:30:22Z</time>
      </trkpt>
      <trkpt lat="59.010528731243" lon="12.246566521415">
        <ele>110.8</ele>
        <time>2017-02-18T10:30:36Z</time>
      </trkpt>
      <trkpt lat="59.010710367016" lon="12.2465342511">
        <ele>110.8</ele>
        <time>2017-02-18T10:30:49Z</time>
      </trkpt>
      <trkpt lat="59.010898540671" lon="12.246501142595">
        <ele>114</ele>
        <time>2017-02-18T10:31:03Z</time>
      </trkpt>
      <trkpt lat="59.011069782888" lon="12.246532993815">
        <ele>115</ele>
        <time>2017-02-18T10:31:37Z</time>
      </trkpt>
      <trkpt lat="59.011252843584" lon="12.246596696255">
        <ele>114.4</ele>
        <time>2017-02-18T10:31:50Z</time>
      </trkpt>
      <trkpt lat="59.011425510724" lon="12.246744385333">
        <ele>111.2</ele>
        <time>2017-02-18T10:32:04Z</time>
      </trkpt>
      <trkpt lat="59.011611756542" lon="12.246791659249">
        <ele>112.6</ele>
        <time>2017-02-18T10:32:17Z</time>
      </trkpt>
      <trkpt lat="59.011796661256" lon="12.246852176567">
        <ele>112.2</ele>
        <time>2017-02-18T10:32:30Z</time>
      </trkpt>
      <trkpt lat="59.01197653683" lon="12.246915040817">
        <ele>110.6</ele>
        <time>2017-02-18T10:32:44Z</time>
      </trkpt>
      <trkpt lat="59.012166638322" lon="12.246926859296">
        <ele>112</ele>
        <time>2017-02-18T10:32:57Z</time>
      </trkpt>
      <trkpt lat="59.012353051778" lon="12.246933732454">
        <ele>114.8</ele>
        <time>2017-02-18T10:33:11Z</time>
      </trkpt>
      <trkpt lat="59.012532089162" lon="12.246912610066">
        <ele>115.2</ele>
        <time>2017-02-18T10:33:25Z</time>
      </trkpt>
      <trkpt lat="59.012713138202" lon="12.246890398031">
        <ele>114.6</ele>
        <time>2017-02-18T10:33:38Z</time>
      </trkpt>
      <trkpt lat="59.012900389848" lon="12.246858379173">
        <ele>114.4</ele>
        <time>2017-02-18T10:33:52Z</time>
      </trkpt>
      <trkpt lat="59.013083450544" lon="12.246822672279">
        <ele>115.6</ele>
        <time>2017-02-18T10:34:05Z</time>
      </trkpt>
      <trkpt lat="59.013261733557" lon="12.246790904878">
        <ele>115.6</ele>
        <time>2017-02-18T10:34:18Z</time>
      </trkpt>
      <trkpt lat="59.01345007485" lon="12.246744301514">
        <ele>113.8</ele>
        <time>2017-02-18T10:34:32Z</time>
      </trkpt>
      <trkpt lat="59.013638583781" lon="12.246708175525">
        <ele>113</ele>
        <time>2017-02-18T10:34:46Z</time>
      </trkpt>
      <trkpt lat="59.013823823771" lon="12.246650591872">
        <ele>112.4</ele>
        <time>2017-02-18T10:35:00Z</time>
      </trkpt>
      <trkpt lat="59.014005208087" lon="12.246565012673">
        <ele>110.8</ele>
        <time>2017-02-18T10:35:15Z</time>
      </trkpt>
      <trkpt lat="59.014297065845" lon="12.246374324448">
        <ele>113</ele>
        <time>2017-02-18T10:35:37Z</time>
      </trkpt>
      <trkpt lat="59.014462524551" lon="12.246224707533">
        <ele>115.4</ele>
        <time>2017-02-18T10:35:49Z</time>
      </trkpt>
      <trkpt lat="59.014638712089" lon="12.246102331793">
        <ele>116.2</ele>
        <time>2017-02-18T10:36:03Z</time>
      </trkpt>
      <trkpt lat="59.014808026469" lon="12.245966125918">
        <ele>116.4</ele>
        <time>2017-02-18T10:36:16Z</time>
      </trkpt>
      <trkpt lat="59.014970886786" lon="12.245799242289">
        <ele>116.4</ele>
        <time>2017-02-18T10:36:29Z</time>
      </trkpt>
      <trkpt lat="59.015134166198" lon="12.245633532126">
        <ele>116.6</ele>
        <time>2017-02-18T10:36:42Z</time>
      </trkpt>
      <trkpt lat="59.015305995148" lon="12.245460445891">
        <ele>116.2</ele>
        <time>2017-02-18T10:36:56Z</time>
      </trkpt>
      <trkpt lat="59.015468101094" lon="12.245295909194">
        <ele>116.4</ele>
        <time>2017-02-18T10:37:10Z</time>
      </trkpt>
      <trkpt lat="59.015631129049" lon="12.245147130469">
        <ele>117.2</ele>
        <time>2017-02-18T10:37:23Z</time>
      </trkpt>
      <trkpt lat="59.015802706542" lon="12.244983096686">
        <ele>117.4</ele>
        <time>2017-02-18T10:37:36Z</time>
      </trkpt>
      <trkpt lat="59.015975876596" lon="12.244823086215">
        <ele>118.4</ele>
        <time>2017-02-18T10:37:50Z</time>
      </trkpt>
      <trkpt lat="59.016148292279" lon="12.244695094602">
        <ele>119.2</ele>
        <time>2017-02-18T10:38:04Z</time>
      </trkpt>
      <trkpt lat="59.016158602016" lon="12.244685036322">
        <ele>118.6</ele>
        <time>2017-02-18T10:38:05Z</time>
      </trkpt>
      <trkpt lat="59.016333280812" lon="12.244594595621">
        <ele>116.8</ele>
        <time>2017-02-18T10:38:18Z</time>
      </trkpt>
      <trkpt lat="59.016507624332" lon="12.244449337294">
        <ele>121</ele>
        <time>2017-02-18T10:38:32Z</time>
      </trkpt>
      <trkpt lat="59.016685236793" lon="12.244353196901">
        <ele>124.2</ele>
        <time>2017-02-18T10:38:46Z</time>
      </trkpt>
      <trkpt lat="59.016865112367" lon="12.244259571078">
        <ele>121.2</ele>
        <time>2017-02-18T10:39:00Z</time>
      </trkpt>
      <trkpt lat="59.017046580502" lon="12.244173572784">
        <ele>119.8</ele>
        <time>2017-02-18T10:39:13Z</time>
      </trkpt>
      <trkpt lat="59.017229725017" lon="12.244066284464">
        <ele>123</ele>
        <time>2017-02-18T10:39:26Z</time>
      </trkpt>
      <trkpt lat="59.017402392157" lon="12.243967880958">
        <ele>126.8</ele>
        <time>2017-02-18T10:39:39Z</time>
      </trkpt>
      <trkpt lat="59.017441870906" lon="12.243952122986">
        <ele>126.6</ele>
        <time>2017-02-18T10:39:42Z</time>
      </trkpt>
      <trkpt lat="59.017626943258" lon="12.243882301759">
        <ele>127.4</ele>
        <time>2017-02-18T10:39:57Z</time>
      </trkpt>
      <trkpt lat="59.017809920135" lon="12.243809463048">
        <ele>124.8</ele>
        <time>2017-02-18T10:40:11Z</time>
      </trkpt>
      <trkpt lat="59.017989376614" lon="12.243730421731">
        <ele>120.8</ele>
        <time>2017-02-18T10:40:24Z</time>
      </trkpt>
      <trkpt lat="59.018171180025" lon="12.243681219978">
        <ele>119.8</ele>
        <time>2017-02-18T10:40:37Z</time>
      </trkpt>
      <trkpt lat="59.018360694784" lon="12.24362992275">
        <ele>115.8</ele>
        <time>2017-02-18T10:40:51Z</time>
      </trkpt>
      <trkpt lat="59.018543168747" lon="12.243535961651">
        <ele>113.4</ele>
        <time>2017-02-18T10:41:05Z</time>
      </trkpt>
      <trkpt lat="59.018729749841" lon="12.243460105456">
        <ele>118</ele>
        <time>2017-02-18T10:41:18Z</time>
      </trkpt>
      <trkpt lat="59.018916917668" lon="12.243395648645">
        <ele>120</ele>
        <time>2017-02-18T10:41:32Z</time>
      </trkpt>
      <trkpt lat="59.01909025536" lon="12.243304118297">
        <ele>115.8</ele>
        <time>2017-02-18T10:41:46Z</time>
      </trkpt>
      <trkpt lat="59.019279015748" lon="12.243223819695">
        <ele>113.8</ele>
        <time>2017-02-18T10:41:59Z</time>
      </trkpt>
      <trkpt lat="59.019462663177" lon="12.243126505836">
        <ele>113.6</ele>
        <time>2017-02-18T10:42:13Z</time>
      </trkpt>
      <trkpt lat="59.019641532923" lon="12.243049392356">
        <ele>114.4</ele>
        <time>2017-02-18T10:42:25Z</time>
      </trkpt>
      <trkpt lat="59.019821240859" lon="12.242913521757">
        <ele>114.2</ele>
        <time>2017-02-18T10:42:39Z</time>
      </trkpt>
      <trkpt lat="59.019997093121" lon="12.24276742524">
        <ele>115.2</ele>
        <time>2017-02-18T10:42:53Z</time>
      </trkpt>
      <trkpt lat="59.020172107193" lon="12.242646474423">
        <ele>114</ele>
        <time>2017-02-18T10:43:05Z</time>
      </trkpt>
      <trkpt lat="59.020343517048" lon="12.24252686471">
        <ele>113.6</ele>
        <time>2017-02-18T10:43:17Z</time>
      </trkpt>
      <trkpt lat="59.020506377365" lon="12.242416391268">
        <ele>112.4</ele>
        <time>2017-02-18T10:43:30Z</time>
      </trkpt>
      <trkpt lat="59.020676194659" lon="12.24226451124">
        <ele>110.8</ele>
        <time>2017-02-18T10:43:43Z</time>
      </trkpt>
      <trkpt lat="59.020852801292" lon="12.242142806052">
        <ele>113</ele>
        <time>2017-02-18T10:43:55Z</time>
      </trkpt>
      <trkpt lat="59.021029659382" lon="12.242026716737">
        <ele>113.6</ele>
        <time>2017-02-18T10:44:08Z</time>
      </trkpt>
      <trkpt lat="59.021203416169" lon="12.24188062022">
        <ele>117</ele>
        <time>2017-02-18T10:44:21Z</time>
      </trkpt>
      <trkpt lat="59.021370299798" lon="12.241738379377">
        <ele>116.8</ele>
        <time>2017-02-18T10:44:35Z</time>
      </trkpt>
      <trkpt lat="59.021541709653" lon="12.24159228286">
        <ele>120.4</ele>
        <time>2017-02-18T10:44:48Z</time>
      </trkpt>
      <trkpt lat="59.021716053173" lon="12.241497148295">
        <ele>116.2</ele>
        <time>2017-02-18T10:45:01Z</time>
      </trkpt>
      <trkpt lat="59.021896096385" lon="12.241369240501">
        <ele>116</ele>
        <time>2017-02-18T10:45:14Z</time>
      </trkpt>
      <trkpt lat="59.022078067434" lon="12.241282068741">
        <ele>113</ele>
        <time>2017-02-18T10:45:28Z</time>
      </trkpt>
      <trkpt lat="59.02225693718" lon="12.241156675517">
        <ele>113.6</ele>
        <time>2017-02-18T10:45:42Z</time>
      </trkpt>
      <trkpt lat="59.02243379527" lon="12.241014350855">
        <ele>114.4</ele>
        <time>2017-02-18T10:45:56Z</time>
      </trkpt>
      <trkpt lat="59.022600008347" lon="12.240852664004">
        <ele>115.6</ele>
        <time>2017-02-18T10:46:10Z</time>
      </trkpt>
      <trkpt lat="59.022754570583" lon="12.240673039887">
        <ele>116</ele>
        <time>2017-02-18T10:46:23Z</time>
      </trkpt>
      <trkpt lat="59.022911312113" lon="12.240475394685">
        <ele>116.4</ele>
        <time>2017-02-18T10:46:37Z</time>
      </trkpt>
      <trkpt lat="59.023067299272" lon="12.240256962371">
        <ele>117.2</ele>
        <time>2017-02-18T10:46:51Z</time>
      </trkpt>
      <trkpt lat="59.023215323626" lon="12.240015731289">
        <ele>118.8</ele>
        <time>2017-02-18T10:47:05Z</time>
      </trkpt>
      <trkpt lat="59.02334742237" lon="12.239774500207">
        <ele>117.2</ele>
        <time>2017-02-18T10:47:19Z</time>
      </trkpt>
      <trkpt lat="59.023475162526" lon="12.239506111769">
        <ele>116</ele>
        <time>2017-02-18T10:47:34Z</time>
      </trkpt>
      <trkpt lat="59.023593514954" lon="12.239227916508">
        <ele>114.8</ele>
        <time>2017-02-18T10:47:48Z</time>
      </trkpt>
      <trkpt lat="59.023687392234" lon="12.238920719873">
        <ele>114.8</ele>
        <time>2017-02-18T10:48:02Z</time>
      </trkpt>
      <trkpt lat="59.023810522345" lon="12.238650906512">
        <ele>115</ele>
        <time>2017-02-18T10:48:17Z</time>
      </trkpt>
      <trkpt lat="59.02391152424" lon="12.238352259415">
        <ele>114.8</ele>
        <time>2017-02-18T10:48:32Z</time>
      </trkpt>
      <trkpt lat="59.024020405121" lon="12.238088397203">
        <ele>114</ele>
        <time>2017-02-18T10:49:02Z</time>
      </trkpt>
      <trkpt lat="59.02404479645" lon="12.238030981188">
        <ele>114</ele>
        <time>2017-02-18T10:49:05Z</time>
      </trkpt>
      <trkpt lat="59.024051166694" lon="12.238024610944">
        <ele>114</ele>
        <time>2017-02-18T10:49:07Z</time>
      </trkpt>
      <trkpt lat="59.024163903249" lon="12.237752953565">
        <ele>112.8</ele>
        <time>2017-02-18T10:49:53Z</time>
      </trkpt>
      <trkpt lat="59.024270018103" lon="12.237466124947">
        <ele>112.4</ele>
        <time>2017-02-18T10:50:08Z</time>
      </trkpt>
      <trkpt lat="59.024391052739" lon="12.237191366265">
        <ele>111.4</ele>
        <time>2017-02-18T10:50:22Z</time>
      </trkpt>
      <trkpt lat="59.024412426584" lon="12.23710377541">
        <ele>111</ele>
        <time>2017-02-18T10:50:27Z</time>
      </trkpt>
      <trkpt lat="59.024527258614" lon="12.236820299552">
        <ele>112.4</ele>
        <time>2017-02-18T10:50:40Z</time>
      </trkpt>
      <trkpt lat="59.024656507512" lon="12.236549983277">
        <ele>113.2</ele>
        <time>2017-02-18T10:50:54Z</time>
      </trkpt>
      <trkpt lat="59.024783409478" lon="12.236290647291">
        <ele>113.8</ele>
        <time>2017-02-18T10:51:08Z</time>
      </trkpt>
      <trkpt lat="59.024934535135" lon="12.236072298796">
        <ele>115.2</ele>
        <time>2017-02-18T10:51:22Z</time>
      </trkpt>
      <trkpt lat="59.025093036864" lon="12.235902816778">
        <ele>113</ele>
        <time>2017-02-18T10:51:36Z</time>
      </trkpt>
      <trkpt lat="59.025256232457" lon="12.235736268425">
        <ele>113.2</ele>
        <time>2017-02-18T10:51:50Z</time>
      </trkpt>
      <trkpt lat="59.025423283724" lon="12.235601822749">
        <ele>114.2</ele>
        <time>2017-02-18T10:52:04Z</time>
      </trkpt>
      <trkpt lat="59.025599219805" lon="12.235487074538">
        <ele>113.8</ele>
        <time>2017-02-18T10:52:18Z</time>
      </trkpt>
      <trkpt lat="59.025783789243" lon="12.235432256912">
        <ele>113</ele>
        <time>2017-02-18T10:52:33Z</time>
      </trkpt>
      <trkpt lat="59.025963580998" lon="12.235376517277">
        <ele>114.4</ele>
        <time>2017-02-18T10:52:46Z</time>
      </trkpt>
      <trkpt lat="59.026151754653" lon="12.2353360327">
        <ele>114.6</ele>
        <time>2017-02-18T10:53:01Z</time>
      </trkpt>
      <trkpt lat="59.026314866427" lon="12.235333937225">
        <ele>117</ele>
        <time>2017-02-18T10:53:14Z</time>
      </trkpt>
      <trkpt lat="59.026496418381" lon="12.235320610004">
        <ele>116</ele>
        <time>2017-02-18T10:53:29Z</time>
      </trkpt>
      <trkpt lat="59.026676964507" lon="12.235323711307">
        <ele>115</ele>
        <time>2017-02-18T10:53:43Z</time>
      </trkpt>
      <trkpt lat="59.027039146406" lon="12.2352689775">
        <ele>113.6</ele>
        <time>2017-02-18T10:54:11Z</time>
      </trkpt>
      <trkpt lat="59.027226733328" lon="12.235249363854">
        <ele>113.4</ele>
        <time>2017-02-18T10:54:26Z</time>
      </trkpt>
      <trkpt lat="59.027250537924" lon="12.235245927275">
        <ele>113.2</ele>
        <time>2017-02-18T10:54:28Z</time>
      </trkpt>
      <trkpt lat="59.027439885045" lon="12.235190271459">
        <ele>111.6</ele>
        <time>2017-02-18T10:54:45Z</time>
      </trkpt>
      <trkpt lat="59.027617246049" lon="12.235106201002">
        <ele>111.6</ele>
        <time>2017-02-18T10:55:00Z</time>
      </trkpt>
      <trkpt lat="59.027779435814" lon="12.234919368451">
        <ele>112.4</ele>
        <time>2017-02-18T10:55:15Z</time>
      </trkpt>
      <trkpt lat="59.027955707171" lon="12.234816187262">
        <ele>111.2</ele>
        <time>2017-02-18T10:55:28Z</time>
      </trkpt>
      <trkpt lat="59.028126697931" lon="12.234668498184">
        <ele>108.8</ele>
        <time>2017-02-18T10:55:41Z</time>
      </trkpt>
      <trkpt lat="59.028267430032" lon="12.234420813039">
        <ele>105.8</ele>
        <time>2017-02-18T10:55:54Z</time>
      </trkpt>
      <trkpt lat="59.02838662065" lon="12.234154687714">
        <ele>102.4</ele>
        <time>2017-02-18T10:56:07Z</time>
      </trkpt>
      <trkpt lat="59.028492064952" lon="12.233872888236">
        <ele>103.2</ele>
        <time>2017-02-18T10:56:19Z</time>
      </trkpt>
      <trkpt lat="59.028591893381" lon="12.23355487895">
        <ele>103.4</ele>
        <time>2017-02-18T10:56:32Z</time>
      </trkpt>
      <trkpt lat="59.028690213068" lon="12.233257992052">
        <ele>102.2</ele>
        <time>2017-02-18T10:56:46Z</time>
      </trkpt>
      <trkpt lat="59.028782833063" lon="12.232934115436">
        <ele>102.4</ele>
        <time>2017-02-18T10:56:59Z</time>
      </trkpt>
      <trkpt lat="59.028863969855" lon="12.232600264359">
        <ele>102.4</ele>
        <time>2017-02-18T10:57:12Z</time>
      </trkpt>
      <trkpt lat="59.028939909869" lon="12.232286613661">
        <ele>102</ele>
        <time>2017-02-18T10:57:25Z</time>
      </trkpt>
      <trkpt lat="59.028868328443" lon="12.232029121693">
        <ele>98</ele>
        <time>2017-02-18T10:57:37Z</time>
      </trkpt>
      <trkpt lat="59.028760872485" lon="12.231750004423">
        <ele>96.4</ele>
        <time>2017-02-18T10:57:50Z</time>
      </trkpt>
      <trkpt lat="59.028661295513" lon="12.231457140837">
        <ele>94.8</ele>
        <time>2017-02-18T10:58:03Z</time>
      </trkpt>
      <trkpt lat="59.028549145691" lon="12.231170647495">
        <ele>93.8</ele>
        <time>2017-02-18T10:58:16Z</time>
      </trkpt>
      <trkpt lat="59.028421573173" lon="12.230912149699">
        <ele>93.6</ele>
        <time>2017-02-18T10:58:30Z</time>
      </trkpt>
      <trkpt lat="59.028308585161" lon="12.230620543398">
        <ele>95.4</ele>
        <time>2017-02-18T10:58:43Z</time>
      </trkpt>
      <trkpt lat="59.028195261873" lon="12.230340755576">
        <ele>91.4</ele>
        <time>2017-02-18T10:58:57Z</time>
      </trkpt>
      <trkpt lat="59.028074897789" lon="12.230055687157">
        <ele>90.4</ele>
        <time>2017-02-18T10:59:11Z</time>
      </trkpt>
      <trkpt lat="59.027942631407" lon="12.22979811137">
        <ele>89</ele>
        <time>2017-02-18T10:59:24Z</time>
      </trkpt>
      <trkpt lat="59.027803994781" lon="12.229563753446">
        <ele>89.4</ele>
        <time>2017-02-18T10:59:37Z</time>
      </trkpt>
      <trkpt lat="59.027640296274" lon="12.229369041909">
        <ele>90</ele>
        <time>2017-02-18T10:59:51Z</time>
      </trkpt>
      <trkpt lat="59.027598302955" lon="12.229020522507">
        <ele>90.8</ele>
        <time>2017-02-18T11:00:04Z</time>
      </trkpt>
      <trkpt lat="59.027528230271" lon="12.228730844043">
        <ele>91.4</ele>
        <time>2017-02-18T11:00:18Z</time>
      </trkpt>
      <trkpt lat="59.027357574787" lon="12.228689605095">
        <ele>92.6</ele>
        <time>2017-02-18T11:00:32Z</time>
      </trkpt>
      <trkpt lat="59.027171915702" lon="12.22865901116">
        <ele>89.8</ele>
        <time>2017-02-18T11:00:45Z</time>
      </trkpt>
      <trkpt lat="59.026998745648" lon="12.228565804432">
        <ele>85.4</ele>
        <time>2017-02-18T11:00:59Z</time>
      </trkpt>
      <trkpt lat="59.026817277513" lon="12.228506544399">
        <ele>85.6</ele>
        <time>2017-02-18T11:01:13Z</time>
      </trkpt>
      <trkpt lat="59.026687190425" lon="12.228452648782">
        <ele>85</ele>
        <time>2017-02-18T11:01:23Z</time>
      </trkpt>
      <trkpt lat="59.026661541811" lon="12.228265564774">
        <ele>83.6</ele>
        <time>2017-02-18T11:01:31Z</time>
      </trkpt>
      <trkpt lat="59.026602030321" lon="12.227920901046">
        <ele>90.6</ele>
        <time>2017-02-18T11:01:50Z</time>
      </trkpt>
      <trkpt lat="59.026482588246" lon="12.227655027178">
        <ele>91.4</ele>
        <time>2017-02-18T11:02:04Z</time>
      </trkpt>
      <trkpt lat="59.026425088412" lon="12.227311285459">
        <ele>92.2</ele>
        <time>2017-02-18T11:02:21Z</time>
      </trkpt>
      <trkpt lat="59.026516786398" lon="12.226968298111">
        <ele>101.2</ele>
        <time>2017-02-18T11:02:34Z</time>
      </trkpt>
      <trkpt lat="59.026550900731" lon="12.226625729858">
        <ele>100.8</ele>
        <time>2017-02-18T11:02:47Z</time>
      </trkpt>
      <trkpt lat="59.026549391989" lon="12.226259776104">
        <ele>97.8</ele>
        <time>2017-02-18T11:03:01Z</time>
      </trkpt>
      <trkpt lat="59.026559953183" lon="12.2259063952">
        <ele>99.6</ele>
        <time>2017-02-18T11:03:15Z</time>
      </trkpt>
      <trkpt lat="59.026623487985" lon="12.225570700105">
        <ele>105.2</ele>
        <time>2017-02-18T11:03:29Z</time>
      </trkpt>
      <trkpt lat="59.026679730534" lon="12.225218576486">
        <ele>110.6</ele>
        <time>2017-02-18T11:03:43Z</time>
      </trkpt>
      <trkpt lat="59.02674628282" lon="12.224891179472">
        <ele>109.2</ele>
        <time>2017-02-18T11:03:58Z</time>
      </trkpt>
      <trkpt lat="59.026832448752" lon="12.224570571797">
        <ele>109.8</ele>
        <time>2017-02-18T11:04:12Z</time>
      </trkpt>
      <trkpt lat="59.026886679645" lon="12.224376530812">
        <ele>110.6</ele>
        <time>2017-02-18T11:04:20Z</time>
      </trkpt>
      <trkpt lat="59.027045013736" lon="12.224242085136">
        <ele>110</ele>
        <time>2017-02-18T11:04:36Z</time>
      </trkpt>
      <trkpt lat="59.027127407813" lon="12.224224315508">
        <ele>108.6</ele>
        <time>2017-02-18T11:04:44Z</time>
      </trkpt>
    </trkseg>
  </trk>
</gpx>